createdAt,value
2018-03-08T00:00:31.252Z,4.50
2018-03-08T00:02:58.754Z,4.50
2018-03-08T00:05:26.286Z,4.60
2018-03-08T00:07:53.771Z,4.60
2018-03-08T00:10:21.270Z,4.50
2018-03-08T00:12:48.779Z,4.60
2018-03-08T00:15:16.270Z,4.60
2018-03-08T00:17:43.796Z,4.50
2018-03-08T00:20:12.062Z,4.50
2018-03-08T00:22:40.323Z,4.60
2018-03-08T00:25:07.843Z,4.60
2018-03-08T00:27:35.326Z,4.40
2018-03-08T00:30:03.582Z,4.50
2018-03-08T00:32:31.095Z,4.50
2018-03-08T00:34:58.570Z,4.50
2018-03-08T00:37:26.069Z,4.50
2018-03-08T00:39:53.562Z,4.50
2018-03-08T00:42:21.072Z,4.50
2018-03-08T00:44:48.583Z,4.50
2018-03-08T00:47:16.174Z,4.40
2018-03-08T00:49:43.659Z,4.40
2018-03-08T00:52:11.167Z,4.40
2018-03-08T00:54:38.710Z,4.30
2018-03-08T00:57:06.959Z,4.20
2018-03-08T00:59:34.444Z,4.20
2018-03-08T01:02:01.955Z,4.20
2018-03-08T01:04:30.190Z,4.00
2018-03-08T01:06:57.694Z,4.00
2018-03-08T01:09:25.955Z,4.00
2018-03-08T01:11:53.462Z,4.00
2018-03-08T01:14:21.699Z,3.90
2018-03-08T01:16:49.211Z,3.90
2018-03-08T01:19:16.682Z,3.80
2018-03-08T01:21:44.216Z,3.80
2018-03-08T01:24:11.704Z,3.80
2018-03-08T01:26:39.194Z,3.80
2018-03-08T01:29:06.692Z,3.80
2018-03-08T01:31:34.172Z,3.80
2018-03-08T01:34:01.673Z,3.70
2018-03-08T01:36:29.176Z,3.70
2018-03-08T01:38:56.675Z,3.70
2018-03-08T01:41:24.166Z,3.70
2018-03-08T01:43:51.671Z,3.70
2018-03-08T01:46:19.155Z,3.60
2018-03-08T01:48:46.629Z,3.60
2018-03-08T01:51:14.153Z,3.70
2018-03-08T01:53:41.644Z,3.60
2018-03-08T01:56:09.142Z,3.60
2018-03-08T01:58:37.419Z,3.60
2018-03-08T02:01:04.905Z,3.60
2018-03-08T02:03:33.180Z,3.60
2018-03-08T02:06:00.683Z,3.60
2018-03-08T02:08:28.200Z,3.60
2018-03-08T02:10:55.691Z,3.60
2018-03-08T02:13:23.223Z,3.50
2018-03-08T02:15:50.703Z,3.50
2018-03-08T02:18:18.174Z,3.50
2018-03-08T02:20:46.439Z,3.50
2018-03-08T02:23:13.947Z,3.50
2018-03-08T02:25:41.463Z,3.50
2018-03-08T02:28:08.940Z,3.50
2018-03-08T02:30:36.572Z,3.40
2018-03-08T02:33:04.057Z,3.40
2018-03-08T02:35:31.566Z,3.50
2018-03-08T02:37:59.046Z,3.40
2018-03-08T02:40:26.545Z,3.50
2018-03-08T02:42:54.053Z,3.50
2018-03-08T02:45:22.339Z,3.40
2018-03-08T02:47:49.825Z,3.40
2018-03-08T02:50:17.308Z,3.40
2018-03-08T02:52:44.823Z,3.40
2018-03-08T02:55:12.323Z,3.30
2018-03-08T02:57:40.611Z,3.30
2018-03-08T03:00:08.863Z,3.30
2018-03-08T03:02:36.363Z,3.30
2018-03-08T03:05:03.867Z,3.40
2018-03-08T03:07:31.347Z,3.40
2018-03-08T03:09:58.875Z,3.50
2018-03-08T03:12:26.343Z,3.50
2018-03-08T03:14:53.854Z,3.50
2018-03-08T03:17:21.330Z,3.50
2018-03-08T03:19:48.843Z,3.50
2018-03-08T03:22:16.323Z,3.50
2018-03-08T03:24:43.799Z,3.50
2018-03-08T03:27:12.068Z,3.50
2018-03-08T03:29:39.556Z,3.50
2018-03-08T03:32:07.050Z,3.50
2018-03-08T03:34:34.531Z,3.50
2018-03-08T03:37:02.040Z,3.40
2018-03-08T03:39:29.534Z,3.50
2018-03-08T03:41:57.054Z,3.50
2018-03-08T03:44:24.536Z,3.50
2018-03-08T03:46:52.070Z,3.50
2018-03-08T03:49:19.544Z,3.50
2018-03-08T03:51:47.011Z,3.50
2018-03-08T03:54:14.527Z,3.50
2018-03-08T03:56:42.043Z,3.40
2018-03-08T03:59:10.279Z,3.40
2018-03-08T04:01:37.801Z,3.40
2018-03-08T04:04:06.032Z,3.40
2018-03-08T04:06:33.504Z,3.40
2018-03-08T04:09:01.003Z,3.40
2018-03-08T04:11:28.490Z,3.40
2018-03-08T04:13:56.014Z,3.40
2018-03-08T04:16:23.498Z,3.40
2018-03-08T04:18:50.986Z,3.40
2018-03-08T04:21:18.495Z,3.40
2018-03-08T04:23:46.742Z,3.60
2018-03-08T04:26:14.249Z,3.50
2018-03-08T04:28:42.517Z,3.40
2018-03-08T04:31:10.031Z,3.40
2018-03-08T04:33:37.522Z,3.40
2018-03-08T04:36:05.028Z,3.40
2018-03-08T04:38:32.512Z,3.50
2018-03-08T04:41:00.770Z,3.60
2018-03-08T04:43:28.253Z,3.60
2018-03-08T04:45:55.775Z,3.50
2018-03-08T04:48:23.254Z,3.40
2018-03-08T04:50:50.738Z,3.40
2018-03-08T04:53:18.247Z,3.40
2018-03-08T04:55:46.571Z,3.50
2018-03-08T04:58:14.073Z,3.50
2018-03-08T05:00:41.589Z,3.60
2018-03-08T05:03:09.854Z,3.50
2018-03-08T05:05:37.343Z,3.50
2018-03-08T05:08:05.620Z,3.50
2018-03-08T05:10:33.105Z,3.50
2018-03-08T05:13:01.379Z,3.40
2018-03-08T05:15:28.936Z,3.40
2018-03-08T05:17:56.465Z,3.40
2018-03-08T05:20:23.970Z,3.50
2018-03-08T05:22:51.443Z,3.50
2018-03-08T05:25:18.973Z,3.40
2018-03-08T05:27:46.446Z,3.50
2018-03-08T05:30:13.950Z,3.40
2018-03-08T05:32:41.446Z,3.40
2018-03-08T05:35:08.930Z,3.30
2018-03-08T05:37:37.202Z,3.50
2018-03-08T05:40:04.729Z,3.40
2018-03-08T05:42:32.983Z,3.40
2018-03-08T05:45:01.275Z,3.40
2018-03-08T05:47:28.764Z,3.40
2018-03-08T05:49:56.286Z,3.50
2018-03-08T05:52:23.783Z,3.40
2018-03-08T05:54:52.067Z,3.50
2018-03-08T05:57:19.548Z,3.50
2018-03-08T05:59:47.869Z,3.50
2018-03-08T06:02:15.388Z,3.40
2018-03-08T06:04:42.910Z,3.40
2018-03-08T06:07:10.394Z,3.40
2018-03-08T06:09:37.904Z,3.40
2018-03-08T06:12:05.462Z,3.50
2018-03-08T06:14:32.998Z,3.50
2018-03-08T06:17:00.496Z,3.40
2018-03-08T06:19:28.053Z,3.40
2018-03-08T06:21:55.574Z,3.60
2018-03-08T06:24:23.826Z,3.60
2018-03-08T06:26:51.357Z,3.60
2018-03-08T06:29:18.876Z,3.70
2018-03-08T06:31:46.366Z,3.70
2018-03-08T06:34:14.659Z,3.80
2018-03-08T06:36:42.148Z,3.80
2018-03-08T06:39:09.689Z,3.90
2018-03-08T06:41:37.171Z,4.00
2018-03-08T06:44:04.683Z,4.00
2018-03-08T06:46:32.207Z,4.00
2018-03-08T06:48:59.684Z,4.10
2018-03-08T06:51:27.227Z,4.10
2018-03-08T06:53:54.707Z,4.20
2018-03-08T06:56:22.187Z,4.30
2018-03-08T06:58:49.721Z,4.40
2018-03-08T07:01:17.228Z,4.50
2018-03-08T07:03:44.743Z,4.50
2018-03-08T07:06:12.227Z,4.70
2018-03-08T07:08:39.750Z,4.70
2018-03-08T07:11:07.235Z,4.80
2018-03-08T07:13:35.520Z,5.00
2018-03-08T07:16:03.860Z,5.00
2018-03-08T07:18:31.357Z,5.00
2018-03-08T07:20:58.964Z,5.00
2018-03-08T07:23:27.280Z,5.00
2018-03-08T07:25:54.804Z,5.00
2018-03-08T07:28:23.100Z,5.20
2018-03-08T07:30:51.360Z,5.20
2018-03-08T07:33:18.903Z,5.10
2018-03-08T07:35:46.435Z,5.20
2018-03-08T07:38:14.698Z,5.20
2018-03-08T07:40:42.187Z,5.20
2018-03-08T07:43:09.691Z,5.20
2018-03-08T07:45:37.230Z,5.30
2018-03-08T07:48:04.708Z,5.40
2018-03-08T07:50:32.956Z,5.40
2018-03-08T07:53:00.483Z,5.40
2018-03-08T07:55:28.726Z,5.50
2018-03-08T07:57:56.216Z,5.50
2018-03-08T08:00:24.543Z,5.80
2018-03-08T08:02:51.996Z,5.80
2018-03-08T08:05:32.020Z,6.00
2018-03-08T08:08:11.513Z,6.10
2018-03-08T08:10:39.020Z,6.20
2018-03-08T08:13:06.553Z,6.30
2018-03-08T08:15:34.761Z,6.40
2018-03-08T08:18:02.364Z,6.40
2018-03-08T08:20:29.868Z,6.40
2018-03-08T08:22:57.368Z,6.40
2018-03-08T08:25:24.897Z,6.40
2018-03-08T08:27:52.453Z,6.50
2018-03-08T08:30:19.931Z,6.60
2018-03-08T08:32:48.206Z,6.80
2018-03-08T08:35:15.701Z,6.80
2018-03-08T08:37:43.201Z,7.00
2018-03-08T08:40:10.700Z,7.10
2018-03-08T08:42:42.294Z,7.10
2018-03-08T08:45:09.770Z,7.10
2018-03-08T08:47:37.330Z,7.30
2018-03-08T08:50:04.824Z,7.30
2018-03-08T08:52:32.303Z,7.50
2018-03-08T08:54:59.877Z,7.60
2018-03-08T08:57:27.379Z,7.60
2018-03-08T08:59:54.886Z,7.60
2018-03-08T09:02:22.381Z,7.60
2018-03-08T09:04:50.307Z,7.60
2018-03-08T09:07:17.835Z,7.60
2018-03-08T09:09:45.328Z,7.50
2018-03-08T09:12:12.845Z,7.50
2018-03-08T09:14:40.683Z,7.40
2018-03-08T09:17:08.963Z,7.30
2018-03-08T09:19:37.194Z,7.30
2018-03-08T09:22:04.734Z,7.30
2018-03-08T09:24:32.979Z,7.20
2018-03-08T09:27:00.715Z,7.20
2018-03-08T09:29:29.024Z,7.20
2018-03-08T09:31:56.548Z,7.20
2018-03-08T09:34:24.051Z,7.20
2018-03-08T09:36:51.536Z,7.30
2018-03-08T09:39:19.053Z,7.30
2018-03-08T09:41:47.213Z,7.30
2018-03-08T09:46:48.519Z,7.40
2018-03-08T09:49:16.063Z,7.70
2018-03-08T09:51:43.556Z,7.70
2018-03-08T09:54:11.079Z,7.70
2018-03-08T09:56:39.002Z,7.70
2018-03-08T09:59:06.549Z,7.70
2018-03-08T10:01:34.032Z,7.80
2018-03-08T10:04:01.540Z,8.10
2018-03-08T10:06:29.057Z,8.20
2018-03-08T10:08:57.327Z,8.60
2018-03-08T10:11:25.642Z,8.60
2018-03-08T10:13:53.164Z,8.60
2018-03-08T10:16:20.661Z,8.70
2018-03-08T10:18:49.047Z,8.80
2018-03-08T10:21:16.870Z,8.80
2018-03-08T10:23:45.146Z,9.00
2018-03-08T10:26:13.430Z,9.10
2018-03-08T10:28:41.725Z,9.10
2018-03-08T10:31:09.485Z,9.10
2018-03-08T10:33:36.981Z,9.20
2018-03-08T10:36:04.520Z,9.10
2018-03-08T10:38:32.012Z,9.00
2018-03-08T10:43:33.489Z,9.00
2018-03-08T10:46:00.994Z,9.10
2018-03-08T10:48:28.510Z,9.10
2018-03-08T10:50:56.023Z,9.20
2018-03-08T10:53:23.530Z,9.30
2018-03-08T10:55:51.030Z,9.30
2018-03-08T10:58:18.537Z,9.30
2018-03-08T11:00:46.899Z,9.10
2018-03-08T11:03:14.373Z,9.00
2018-03-08T11:05:47.466Z,8.90
2018-03-08T11:08:15.220Z,8.90
2018-03-08T11:13:16.561Z,8.80
2018-03-08T11:15:44.079Z,8.70
2018-03-08T11:18:12.374Z,8.80
2018-03-08T11:20:39.918Z,8.80
2018-03-08T11:23:08.161Z,8.90
2018-03-08T11:25:35.674Z,8.90
2018-03-08T11:28:03.464Z,9.00
2018-03-08T11:30:31.209Z,9.10
2018-03-08T11:32:59.097Z,9.10
2018-03-08T11:35:28.089Z,9.00
2018-03-08T11:37:55.985Z,9.00
2018-03-08T11:40:23.500Z,9.00
2018-03-08T11:42:51.425Z,8.80
2018-03-08T11:45:18.934Z,8.80
2018-03-08T11:47:48.212Z,8.70
2018-03-08T11:50:14.738Z,8.60
2018-03-08T11:52:42.991Z,8.50
2018-03-08T11:55:10.567Z,8.50
2018-03-08T11:57:38.991Z,8.40
2018-03-08T12:00:06.504Z,8.40
2018-03-08T12:02:34.935Z,8.50
2018-03-08T12:05:04.155Z,8.40
2018-03-08T12:07:31.728Z,8.40
2018-03-08T12:09:59.243Z,8.50
2018-03-08T12:12:26.927Z,8.40
2018-03-08T12:14:54.524Z,8.50
2018-03-08T12:17:22.843Z,8.50
2018-03-08T12:19:50.394Z,8.50
2018-03-08T12:22:18.148Z,8.40
2018-03-08T12:24:45.885Z,8.40
2018-03-08T12:27:13.389Z,8.30
2018-03-08T12:29:40.931Z,8.30
2018-03-08T12:32:08.463Z,8.30
2018-03-08T12:34:36.724Z,8.20
2018-03-08T12:37:04.249Z,8.20
2018-03-08T12:39:31.775Z,8.10
2018-03-08T12:41:59.302Z,8.10
2018-03-08T12:44:26.785Z,7.90
2018-03-08T12:46:54.685Z,7.90
2018-03-08T12:49:22.171Z,7.90
2018-03-08T12:51:50.558Z,7.80
2018-03-08T12:54:18.017Z,7.90
2018-03-08T12:56:46.294Z,7.80
2018-03-08T12:59:13.801Z,7.80
2018-03-08T13:01:41.300Z,7.70
2018-03-08T13:04:08.797Z,7.70
2018-03-08T13:06:38.072Z,7.40
2018-03-08T13:09:05.569Z,7.50
2018-03-08T13:11:33.921Z,7.30
2018-03-08T13:14:01.384Z,7.30
2018-03-08T13:16:29.660Z,7.20
2018-03-08T13:18:57.160Z,7.20
2018-03-08T13:21:24.722Z,7.20
2018-03-08T13:23:52.206Z,7.10
2018-03-08T13:26:19.720Z,6.90
2018-03-08T13:28:47.236Z,6.90
2018-03-08T13:31:16.512Z,6.90
2018-03-08T13:33:44.624Z,6.90
2018-03-08T13:36:12.178Z,7.00
2018-03-08T13:38:39.700Z,7.00
2018-03-08T13:41:07.591Z,6.80
2018-03-08T13:43:35.820Z,6.80
2018-03-08T13:46:03.344Z,6.80
2018-03-08T13:48:30.836Z,6.80
2018-03-08T13:50:58.431Z,7.00
2018-03-08T13:53:26.137Z,7.00
2018-03-08T13:55:54.666Z,6.90
2018-03-08T13:58:22.162Z,6.90
2018-03-08T14:00:49.612Z,6.80
2018-03-08T14:03:17.934Z,6.80
2018-03-08T14:05:45.478Z,6.70
2018-03-08T14:08:14.808Z,6.80
2018-03-08T14:10:42.345Z,6.80
2018-03-08T14:13:10.626Z,6.80
2018-03-08T14:15:39.711Z,6.80
2018-03-08T14:18:07.183Z,6.80
2018-03-08T14:20:35.527Z,6.80
2018-03-08T14:23:03.041Z,6.70
2018-03-08T14:25:30.943Z,6.70
2018-03-08T14:27:58.463Z,6.60
2018-03-08T14:30:26.057Z,6.60
2018-03-08T14:32:53.533Z,6.60
2018-03-08T14:35:22.235Z,6.50
2018-03-08T14:40:24.323Z,6.40
2018-03-08T14:45:28.844Z,6.40
2018-03-08T14:47:57.966Z,6.30
2018-03-08T14:50:26.242Z,6.30
2018-03-08T14:52:55.471Z,6.30
2018-03-08T14:55:23.466Z,6.20
2018-03-08T14:57:50.950Z,6.30
2018-03-08T15:00:18.549Z,6.30
2018-03-08T15:02:46.458Z,6.20
2018-03-08T15:05:13.995Z,6.20
2018-03-08T15:07:42.113Z,6.10
2018-03-08T15:10:10.777Z,6.00
2018-03-08T15:12:38.809Z,6.00
2018-03-08T15:15:06.245Z,6.00
2018-03-08T15:17:35.303Z,5.90
2018-03-08T15:20:02.783Z,5.90
2018-03-08T15:22:31.087Z,5.70
2018-03-08T15:24:58.564Z,5.60
2018-03-08T15:27:26.551Z,5.70
2018-03-08T15:29:54.131Z,5.60
2018-03-08T15:32:21.601Z,5.50
2018-03-08T15:34:49.114Z,5.50
2018-03-08T15:37:16.587Z,5.50
2018-03-08T15:39:44.830Z,5.50
2018-03-08T15:42:13.506Z,5.50
2018-03-08T15:44:41.014Z,5.50
2018-03-08T15:47:08.515Z,5.50
2018-03-08T15:49:37.816Z,5.60
2018-03-08T15:52:06.106Z,5.50
2018-03-08T15:54:33.975Z,5.50
2018-03-08T15:57:03.832Z,5.60
2018-03-08T15:59:31.465Z,5.60
2018-03-08T16:02:06.049Z,5.60
2018-03-08T16:04:34.667Z,5.60
2018-03-08T16:10:36.363Z,5.70
2018-03-08T16:13:04.842Z,5.60
2018-03-08T16:15:32.323Z,5.60
2018-03-08T16:17:59.870Z,5.60
2018-03-08T16:20:27.374Z,5.70
2018-03-08T16:22:54.860Z,5.60
2018-03-08T16:25:22.448Z,5.60
2018-03-08T16:27:49.963Z,5.60
2018-03-08T16:30:17.596Z,5.60
2018-03-08T16:32:45.193Z,5.50
2018-03-08T16:35:13.789Z,5.60
2018-03-08T16:37:41.342Z,5.60
2018-03-08T16:40:08.922Z,5.60
2018-03-08T16:42:37.404Z,5.60
2018-03-08T16:45:04.874Z,5.60
2018-03-08T16:47:32.370Z,5.60
2018-03-08T16:49:59.895Z,5.60
2018-03-08T16:52:28.143Z,5.40
2018-03-08T16:54:55.654Z,5.40
2018-03-08T16:57:23.920Z,5.40
2018-03-08T16:59:51.415Z,5.40
2018-03-08T17:02:19.667Z,5.20
2018-03-08T17:04:47.168Z,5.20
2018-03-08T17:07:15.447Z,5.10
2018-03-08T17:09:42.953Z,5.10
2018-03-08T17:12:10.485Z,5.10
2018-03-08T17:14:37.978Z,5.20
2018-03-08T17:17:05.498Z,5.00
2018-03-08T17:19:33.007Z,5.00
2018-03-08T17:22:00.510Z,4.90
2018-03-08T17:24:27.988Z,4.90
2018-03-08T17:26:55.488Z,4.90
2018-03-08T17:29:22.964Z,5.00
2018-03-08T17:31:50.499Z,5.00
2018-03-08T17:34:18.014Z,5.00
2018-03-08T17:36:46.304Z,4.90
2018-03-08T17:39:13.811Z,4.90
2018-03-08T17:41:42.072Z,4.90
2018-03-08T17:44:09.548Z,4.90
2018-03-08T17:46:37.832Z,4.80
2018-03-08T17:49:05.331Z,4.80
2018-03-08T17:51:32.838Z,4.70
2018-03-08T17:54:00.322Z,4.70
2018-03-08T17:56:27.816Z,4.80
2018-03-08T17:58:55.334Z,4.70
2018-03-08T18:01:22.815Z,4.70
2018-03-08T18:03:50.332Z,4.70
2018-03-08T18:06:17.872Z,4.80
2018-03-08T18:08:45.430Z,4.80
2018-03-08T18:11:12.932Z,4.80
2018-03-08T18:13:40.460Z,4.70
2018-03-08T18:16:07.937Z,4.80
2018-03-08T18:18:35.467Z,4.70
2018-03-08T18:21:03.744Z,4.60
2018-03-08T18:23:32.000Z,4.70
2018-03-08T18:25:59.529Z,4.70
2018-03-08T18:28:27.280Z,4.70
2018-03-08T18:30:54.832Z,4.70
2018-03-08T18:33:22.370Z,4.70
2018-03-08T18:35:49.845Z,4.70
2018-03-08T18:38:17.363Z,4.60
2018-03-08T18:40:44.851Z,4.70
2018-03-08T18:43:12.383Z,4.70
2018-03-08T18:45:39.859Z,4.70
2018-03-08T18:48:07.375Z,4.70
2018-03-08T18:50:35.610Z,4.70
2018-03-08T18:53:03.138Z,4.70
2018-03-08T18:55:30.613Z,4.70
2018-03-08T19:01:06.721Z,4.60
2018-03-08T19:03:34.194Z,4.60
2018-03-08T19:06:01.696Z,4.50
2018-03-08T19:08:29.199Z,4.50
2018-03-08T19:10:56.703Z,4.60
2018-03-08T19:13:24.184Z,4.50
2018-03-08T19:15:51.653Z,4.60
2018-03-08T19:18:19.182Z,4.50
2018-03-08T19:20:46.673Z,4.50
2018-03-08T19:23:14.965Z,4.50
2018-03-08T19:25:42.434Z,4.50
2018-03-08T19:28:10.741Z,4.40
2018-03-08T19:30:38.235Z,4.40
2018-03-08T19:33:05.735Z,4.40
2018-03-08T19:35:33.230Z,4.40
2018-03-08T19:38:00.783Z,4.30
2018-03-08T19:40:29.067Z,4.40
2018-03-08T19:42:56.577Z,4.40
2018-03-08T19:45:24.104Z,4.30
2018-03-08T19:47:51.593Z,4.30
2018-03-08T19:50:19.900Z,4.30
2018-03-08T19:52:48.190Z,4.40
2018-03-08T19:55:15.761Z,4.30
2018-03-08T19:57:43.271Z,4.30
2018-03-08T20:00:10.812Z,4.30
2018-03-08T20:02:38.402Z,4.30
2018-03-08T20:05:05.897Z,4.30
2018-03-08T20:07:33.450Z,4.30
2018-03-08T20:10:01.771Z,4.20
2018-03-08T20:12:29.351Z,4.20
2018-03-08T20:14:57.657Z,4.20
2018-03-08T20:17:25.989Z,4.30
2018-03-08T20:19:53.584Z,4.20
2018-03-08T20:22:21.165Z,4.20
2018-03-08T20:24:48.695Z,4.20
2018-03-08T20:27:16.175Z,4.20
2018-03-08T20:29:43.674Z,4.10
2018-03-08T20:32:11.528Z,4.10
2018-03-08T20:34:39.072Z,4.10
2018-03-08T20:37:06.680Z,4.10
2018-03-08T20:39:34.187Z,4.10
2018-03-08T20:42:01.674Z,4.10
2018-03-08T20:44:29.947Z,4.10
2018-03-08T20:46:57.456Z,4.10
2018-03-08T20:49:25.007Z,4.10
2018-03-08T20:51:53.272Z,4.10
2018-03-08T20:54:20.777Z,4.10
2018-03-08T20:56:49.057Z,4.10
2018-03-08T20:59:17.310Z,4.10
2018-03-08T21:01:44.842Z,4.00
2018-03-08T21:04:12.324Z,4.10
2018-03-08T21:06:39.856Z,4.00
2018-03-08T21:09:07.413Z,4.00
2018-03-08T21:11:34.883Z,4.00
2018-03-08T21:14:02.411Z,4.00
2018-03-08T21:16:29.891Z,4.00
2018-03-08T21:18:57.408Z,4.00
2018-03-08T21:21:25.723Z,4.00
2018-03-08T21:23:53.211Z,4.00
2018-03-08T21:26:20.707Z,4.00
2018-03-08T21:28:48.214Z,3.90
2018-03-08T21:31:16.479Z,3.90
2018-03-08T21:33:43.999Z,3.80
2018-03-08T21:36:11.506Z,3.90
2018-03-08T21:38:39.001Z,3.90
2018-03-08T21:41:06.506Z,3.90
2018-03-08T21:43:33.996Z,3.80
2018-03-08T21:46:01.503Z,3.80
2018-03-08T21:48:28.992Z,3.80
2018-03-08T21:50:56.521Z,3.80
2018-03-08T21:53:24.002Z,3.80
2018-03-08T21:55:51.482Z,3.90
2018-03-08T21:58:18.999Z,3.80
2018-03-08T22:00:46.481Z,3.80
2018-03-08T22:03:13.990Z,3.80
2018-03-08T22:05:41.474Z,3.80
2018-03-08T22:08:08.976Z,3.80
2018-03-08T22:10:37.235Z,3.80
2018-03-08T22:13:04.791Z,3.80
2018-03-08T22:15:32.291Z,3.80
2018-03-08T22:18:00.530Z,3.70
2018-03-08T22:20:28.036Z,3.70
2018-03-08T22:22:55.540Z,3.80
2018-03-08T22:25:23.003Z,3.80
2018-03-08T22:27:50.508Z,3.80
2018-03-08T22:30:17.987Z,3.80
2018-03-08T22:32:45.488Z,3.80
2018-03-08T22:35:12.984Z,3.80
2018-03-08T22:37:41.258Z,3.80
2018-03-08T22:40:08.738Z,3.80
2018-03-08T22:42:37.007Z,3.70
2018-03-08T22:45:04.482Z,3.70
2018-03-08T22:47:32.755Z,3.70
2018-03-08T22:50:00.231Z,3.60
2018-03-08T22:52:27.745Z,3.70
2018-03-08T22:54:55.230Z,3.70
2018-03-08T22:57:22.703Z,3.70
2018-03-08T22:59:50.218Z,3.70
2018-03-08T23:02:17.730Z,3.70
2018-03-08T23:04:45.227Z,3.80
2018-03-08T23:07:12.703Z,3.70
2018-03-08T23:09:40.234Z,3.70
2018-03-08T23:12:07.713Z,3.70
2018-03-08T23:14:35.216Z,3.70
2018-03-08T23:17:02.722Z,3.80
2018-03-08T23:19:30.970Z,3.70
2018-03-08T23:21:59.262Z,3.70
2018-03-08T23:24:26.754Z,3.70
2018-03-08T23:26:54.224Z,3.70
2018-03-08T23:29:21.704Z,3.70
2018-03-08T23:31:49.218Z,3.70
2018-03-08T23:34:16.702Z,3.80
2018-03-08T23:36:44.177Z,3.80
2018-03-08T23:39:11.682Z,3.80
2018-03-08T23:41:39.154Z,3.70
2018-03-08T23:44:06.626Z,3.80
2018-03-08T23:46:34.136Z,3.80
2018-03-08T23:49:01.611Z,3.80
2018-03-08T23:51:29.115Z,3.80
2018-03-08T23:53:56.595Z,3.80
2018-03-08T23:56:24.094Z,3.80
2018-03-08T23:58:52.363Z,3.90
